sensor_id;sensor_type;location;lat;lon;timestamp;P1;durP1;ratioP1;P2;durP2;ratioP2
4274;SDS011;2151;50.988;11.068;2023-04-24T00:01:53;118.30;;;5.70;;
4274;SDS011;2151;50.988;11.068;2023-04-24T00:04:19;118.87;;;5.87;;
4274;SDS011;2151;50.988;11.068;2023-04-24T00:06:46;118.67;;;5.07;;
4274;SDS011;2151;50.988;11.068;2023-04-24T00:09:15;118.57;;;5.50;;
4274;SDS011;2151;50.988;11.068;2023-04-24T00:11:42;119.70;;;5.57;;
4274;SDS011;2151;50.988;11.068;2023-04-24T00:14:08;117.37;;;5.77;;
4274;SDS011;2151;50.988;11.068;2023-04-24T00:16:34;117.97;;;5.10;;
4274;SDS011;2151;50.988;11.068;2023-04-24T00:19:01;120.47;;;5.30;;
4274;SDS011;2151;50.988;11.068;2023-04-24T00:21:28;117.87;;;5.53;;
4274;SDS011;2151;50.988;11.068;2023-04-24T00:23:54;117.97;;;5.30;;
4274;SDS011;2151;50.988;11.068;2023-04-24T00:26:20;117.80;;;5.40;;
4274;SDS011;2151;50.988;11.068;2023-04-24T00:28:47;119.00;;;5.03;;
4274;SDS011;2151;50.988;11.068;2023-04-24T00:31:13;117.87;;;5.60;;
4274;SDS011;2151;50.988;11.068;2023-04-24T00:33:40;123.37;;;5.60;;
4274;SDS011;2151;50.988;11.068;2023-04-24T00:36:06;121.10;;;5.60;;
4274;SDS011;2151;50.988;11.068;2023-04-24T00:38:33;117.90;;;5.33;;
4274;SDS011;2151;50.988;11.068;2023-04-24T00:41:00;120.17;;;5.70;;
4274;SDS011;2151;50.988;11.068;2023-04-24T00:43:26;118.97;;;5.63;;
4274;SDS011;2151;50.988;11.068;2023-04-24T00:45:53;119.07;;;5.40;;
4274;SDS011;2151;50.988;11.068;2023-04-24T00:48:20;121.07;;;5.60;;
4274;SDS011;2151;50.988;11.068;2023-04-24T00:50:46;117.97;;;5.20;;
4274;SDS011;2151;50.988;11.068;2023-04-24T00:53:13;118.17;;;5.30;;
4274;SDS011;2151;50.988;11.068;2023-04-24T00:55:39;118.83;;;6.00;;
4274;SDS011;2151;50.988;11.068;2023-04-24T00:58:06;118.17;;;5.57;;
4274;SDS011;2151;50.988;11.068;2023-04-24T01:00:32;118.63;;;5.40;;
4274;SDS011;2151;50.988;11.068;2023-04-24T01:02:59;118.27;;;5.43;;
4274;SDS011;2151;50.988;11.068;2023-04-24T01:05:27;117.70;;;5.03;;
4274;SDS011;2151;50.988;11.068;2023-04-24T01:07:53;118.87;;;5.50;;
4274;SDS011;2151;50.988;11.068;2023-04-24T01:10:20;120.87;;;5.40;;
4274;SDS011;2151;50.988;11.068;2023-04-24T01:12:46;117.80;;;5.40;;
4274;SDS011;2151;50.988;11.068;2023-04-24T01:15:13;118.50;;;5.70;;
4274;SDS011;2151;50.988;11.068;2023-04-24T01:17:39;118.60;;;5.63;;
4274;SDS011;2151;50.988;11.068;2023-04-24T01:20:06;118.10;;;5.30;;
4274;SDS011;2151;50.988;11.068;2023-04-24T01:22:35;118.27;;;4.80;;
4274;SDS011;2151;50.988;11.068;2023-04-24T01:25:02;118.53;;;5.43;;
4274;SDS011;2151;50.988;11.068;2023-04-24T01:27:29;117.87;;;4.90;;
4274;SDS011;2151;50.988;11.068;2023-04-24T01:29:56;118.13;;;5.23;;
4274;SDS011;2151;50.988;11.068;2023-04-24T01:32:23;120.37;;;5.47;;
4274;SDS011;2151;50.988;11.068;2023-04-24T01:34:50;117.67;;;5.33;;
4274;SDS011;2151;50.988;11.068;2023-04-24T01:37:16;118.03;;;5.40;;
4274;SDS011;2151;50.988;11.068;2023-04-24T01:39:43;119.83;;;5.63;;
4274;SDS011;2151;50.988;11.068;2023-04-24T01:42:10;121.10;;;5.23;;
4274;SDS011;2151;50.988;11.068;2023-04-24T01:44:38;118.07;;;5.40;;
4274;SDS011;2151;50.988;11.068;2023-04-24T01:47:04;119.93;;;5.60;;
4274;SDS011;2151;50.988;11.068;2023-04-24T01:49:31;120.23;;;5.60;;
4274;SDS011;2151;50.988;11.068;2023-04-24T01:51:58;118.07;;;4.90;;
4274;SDS011;2151;50.988;11.068;2023-04-24T01:54:24;118.70;;;5.40;;
4274;SDS011;2151;50.988;11.068;2023-04-24T01:56:51;119.30;;;5.43;;
4274;SDS011;2151;50.988;11.068;2023-04-24T01:59:18;118.40;;;5.17;;
4274;SDS011;2151;50.988;11.068;2023-04-24T02:01:44;118.27;;;5.33;;
4274;SDS011;2151;50.988;11.068;2023-04-24T02:04:11;118.57;;;5.13;;
4274;SDS011;2151;50.988;11.068;2023-04-24T02:06:38;119.33;;;5.83;;
4274;SDS011;2151;50.988;11.068;2023-04-24T02:09:04;120.37;;;5.40;;
4274;SDS011;2151;50.988;11.068;2023-04-24T02:11:31;122.30;;;5.73;;
4274;SDS011;2151;50.988;11.068;2023-04-24T02:13:57;120.70;;;5.37;;
4274;SDS011;2151;50.988;11.068;2023-04-24T02:16:24;118.50;;;5.33;;
4274;SDS011;2151;50.988;11.068;2023-04-24T02:18:51;120.20;;;5.40;;
4274;SDS011;2151;50.988;11.068;2023-04-24T02:21:17;118.67;;;5.37;;
4274;SDS011;2151;50.988;11.068;2023-04-24T02:23:43;119.47;;;5.40;;
4274;SDS011;2151;50.988;11.068;2023-04-24T02:26:10;118.00;;;5.33;;
4274;SDS011;2151;50.988;11.068;2023-04-24T02:28:37;118.53;;;5.23;;
4274;SDS011;2151;50.988;11.068;2023-04-24T02:31:03;119.10;;;5.50;;
4274;SDS011;2151;50.988;11.068;2023-04-24T02:33:29;118.97;;;5.30;;
4274;SDS011;2151;50.988;11.068;2023-04-24T02:35:56;118.47;;;5.67;;
4274;SDS011;2151;50.988;11.068;2023-04-24T02:38:22;119.17;;;5.70;;
4274;SDS011;2151;50.988;11.068;2023-04-24T02:40:49;120.10;;;5.57;;
4274;SDS011;2151;50.988;11.068;2023-04-24T02:43:15;121.80;;;5.60;;
4274;SDS011;2151;50.988;11.068;2023-04-24T02:45:42;119.17;;;5.97;;
4274;SDS011;2151;50.988;11.068;2023-04-24T02:48:08;119.77;;;5.60;;
4274;SDS011;2151;50.988;11.068;2023-04-24T02:50:34;119.47;;;5.40;;
4274;SDS011;2151;50.988;11.068;2023-04-24T02:53:01;120.10;;;5.47;;
4274;SDS011;2151;50.988;11.068;2023-04-24T02:55:27;121.97;;;5.60;;
4274;SDS011;2151;50.988;11.068;2023-04-24T02:57:54;120.40;;;5.63;;
4274;SDS011;2151;50.988;11.068;2023-04-24T03:00:20;120.13;;;5.50;;
4274;SDS011;2151;50.988;11.068;2023-04-24T03:02:46;120.13;;;6.00;;
4274;SDS011;2151;50.988;11.068;2023-04-24T03:05:13;120.50;;;5.97;;
4274;SDS011;2151;50.988;11.068;2023-04-24T03:07:40;120.00;;;6.07;;
4274;SDS011;2151;50.988;11.068;2023-04-24T03:10:06;120.00;;;5.60;;
4274;SDS011;2151;50.988;11.068;2023-04-24T03:12:33;120.27;;;5.83;;
4274;SDS011;2151;50.988;11.068;2023-04-24T03:14:59;120.57;;;5.90;;
4274;SDS011;2151;50.988;11.068;2023-04-24T03:17:26;120.27;;;6.03;;
4274;SDS011;2151;50.988;11.068;2023-04-24T03:19:52;121.47;;;5.53;;
4274;SDS011;2151;50.988;11.068;2023-04-24T03:22:19;120.27;;;5.60;;
4274;SDS011;2151;50.988;11.068;2023-04-24T03:24:45;120.10;;;5.97;;
4274;SDS011;2151;50.988;11.068;2023-04-24T03:27:12;120.43;;;5.67;;
4274;SDS011;2151;50.988;11.068;2023-04-24T03:29:38;122.10;;;6.13;;
4274;SDS011;2151;50.988;11.068;2023-04-24T03:32:05;120.90;;;5.70;;
4274;SDS011;2151;50.988;11.068;2023-04-24T03:34:31;119.87;;;5.50;;
4274;SDS011;2151;50.988;11.068;2023-04-24T03:36:58;119.87;;;5.70;;
4274;SDS011;2151;50.988;11.068;2023-04-24T03:39:24;120.17;;;5.77;;
4274;SDS011;2151;50.988;11.068;2023-04-24T03:41:51;122.20;;;5.70;;
4274;SDS011;2151;50.988;11.068;2023-04-24T03:44:17;119.77;;;5.33;;
4274;SDS011;2151;50.988;11.068;2023-04-24T03:46:44;120.13;;;5.70;;
4274;SDS011;2151;50.988;11.068;2023-04-24T03:49:10;119.90;;;5.60;;
4274;SDS011;2151;50.988;11.068;2023-04-24T03:51:37;120.17;;;5.90;;
4274;SDS011;2151;50.988;11.068;2023-04-24T03:54:03;120.07;;;5.80;;
4274;SDS011;2151;50.988;11.068;2023-04-24T03:56:30;122.47;;;5.60;;
4274;SDS011;2151;50.988;11.068;2023-04-24T03:58:56;120.20;;;5.80;;
4274;SDS011;2151;50.988;11.068;2023-04-24T04:01:22;119.20;;;5.30;;
4274;SDS011;2151;50.988;11.068;2023-04-24T04:03:50;119.47;;;5.50;;
4274;SDS011;2151;50.988;11.068;2023-04-24T04:06:16;120.07;;;5.80;;
4274;SDS011;2151;50.988;11.068;2023-04-24T04:08:44;120.30;;;5.67;;
4274;SDS011;2151;50.988;11.068;2023-04-24T04:11:10;120.17;;;5.47;;
4274;SDS011;2151;50.988;11.068;2023-04-24T04:13:36;120.80;;;5.70;;
4274;SDS011;2151;50.988;11.068;2023-04-24T04:16:03;120.70;;;5.80;;
4274;SDS011;2151;50.988;11.068;2023-04-24T04:18:29;121.77;;;5.80;;
4274;SDS011;2151;50.988;11.068;2023-04-24T04:20:56;119.73;;;5.47;;
4274;SDS011;2151;50.988;11.068;2023-04-24T04:23:23;121.27;;;5.57;;
4274;SDS011;2151;50.988;11.068;2023-04-24T04:25:49;120.30;;;5.67;;
4274;SDS011;2151;50.988;11.068;2023-04-24T04:28:16;121.30;;;5.87;;
4274;SDS011;2151;50.988;11.068;2023-04-24T04:30:47;119.17;;;5.47;;
4274;SDS011;2151;50.988;11.068;2023-04-24T04:33:13;123.50;;;5.90;;
4274;SDS011;2151;50.988;11.068;2023-04-24T04:35:40;119.83;;;5.63;;
4274;SDS011;2151;50.988;11.068;2023-04-24T04:38:07;120.70;;;5.87;;
4274;SDS011;2151;50.988;11.068;2023-04-24T04:40:34;120.00;;;5.60;;
4274;SDS011;2151;50.988;11.068;2023-04-24T04:43:00;119.37;;;5.90;;
4274;SDS011;2151;50.988;11.068;2023-04-24T04:45:27;120.77;;;5.67;;
4274;SDS011;2151;50.988;11.068;2023-04-24T04:47:54;121.13;;;5.57;;
4274;SDS011;2151;50.988;11.068;2023-04-24T04:50:21;120.40;;;5.43;;
4274;SDS011;2151;50.988;11.068;2023-04-24T04:52:49;120.27;;;5.40;;
4274;SDS011;2151;50.988;11.068;2023-04-24T04:55:15;119.40;;;5.77;;
4274;SDS011;2151;50.988;11.068;2023-04-24T04:57:42;120.17;;;5.90;;
4274;SDS011;2151;50.988;11.068;2023-04-24T05:00:08;119.10;;;5.33;;
4274;SDS011;2151;50.988;11.068;2023-04-24T05:02:37;119.77;;;5.40;;
4274;SDS011;2151;50.988;11.068;2023-04-24T05:05:05;122.67;;;5.57;;
4274;SDS011;2151;50.988;11.068;2023-04-24T05:07:32;123.00;;;5.57;;
4274;SDS011;2151;50.988;11.068;2023-04-24T05:09:58;121.07;;;5.50;;
4274;SDS011;2151;50.988;11.068;2023-04-24T05:12:25;119.70;;;5.57;;
4274;SDS011;2151;50.988;11.068;2023-04-24T05:14:51;122.03;;;5.60;;
4274;SDS011;2151;50.988;11.068;2023-04-24T05:17:18;119.47;;;5.90;;
4274;SDS011;2151;50.988;11.068;2023-04-24T05:19:44;120.27;;;5.63;;
4274;SDS011;2151;50.988;11.068;2023-04-24T05:22:11;120.63;;;5.60;;
4274;SDS011;2151;50.988;11.068;2023-04-24T05:24:38;120.07;;;5.40;;
4274;SDS011;2151;50.988;11.068;2023-04-24T05:27:04;119.40;;;5.37;;
4274;SDS011;2151;50.988;11.068;2023-04-24T05:29:31;121.77;;;5.90;;
4274;SDS011;2151;50.988;11.068;2023-04-24T05:31:57;120.47;;;5.60;;
4274;SDS011;2151;50.988;11.068;2023-04-24T05:34:24;121.30;;;5.83;;
4274;SDS011;2151;50.988;11.068;2023-04-24T05:36:50;121.07;;;6.23;;
4274;SDS011;2151;50.988;11.068;2023-04-24T05:39:17;120.87;;;6.87;;
4274;SDS011;2151;50.988;11.068;2023-04-24T05:41:43;119.50;;;5.73;;
4274;SDS011;2151;50.988;11.068;2023-04-24T05:44:09;121.33;;;6.20;;
4274;SDS011;2151;50.988;11.068;2023-04-24T05:46:36;121.47;;;5.57;;
4274;SDS011;2151;50.988;11.068;2023-04-24T05:49:02;119.53;;;5.93;;
4274;SDS011;2151;50.988;11.068;2023-04-24T05:51:29;122.57;;;5.77;;
4274;SDS011;2151;50.988;11.068;2023-04-24T05:53:55;118.97;;;5.40;;
4274;SDS011;2151;50.988;11.068;2023-04-24T05:56:22;120.87;;;5.60;;
4274;SDS011;2151;50.988;11.068;2023-04-24T05:58:48;119.50;;;5.50;;
4274;SDS011;2151;50.988;11.068;2023-04-24T06:01:14;120.50;;;6.03;;
4274;SDS011;2151;50.988;11.068;2023-04-24T06:03:41;118.50;;;5.30;;
4274;SDS011;2151;50.988;11.068;2023-04-24T06:06:08;123.20;;;5.70;;
4274;SDS011;2151;50.988;11.068;2023-04-24T06:08:35;122.00;;;5.93;;
4274;SDS011;2151;50.988;11.068;2023-04-24T06:11:01;118.50;;;5.63;;
4274;SDS011;2151;50.988;11.068;2023-04-24T06:13:30;119.20;;;5.40;;
4274;SDS011;2151;50.988;11.068;2023-04-24T06:15:56;118.77;;;5.80;;
4274;SDS011;2151;50.988;11.068;2023-04-24T06:18:22;120.27;;;6.63;;
4274;SDS011;2151;50.988;11.068;2023-04-24T06:20:49;119.10;;;5.60;;
4274;SDS011;2151;50.988;11.068;2023-04-24T06:23:15;118.07;;;5.10;;
4274;SDS011;2151;50.988;11.068;2023-04-24T06:25:42;119.47;;;6.33;;
4274;SDS011;2151;50.988;11.068;2023-04-24T06:28:08;118.77;;;5.60;;
4274;SDS011;2151;50.988;11.068;2023-04-24T06:30:35;120.23;;;6.40;;
4274;SDS011;2151;50.988;11.068;2023-04-24T06:33:01;118.97;;;6.33;;
4274;SDS011;2151;50.988;11.068;2023-04-24T06:35:45;120.80;;;6.20;;
4274;SDS011;2151;50.988;11.068;2023-04-24T06:38:11;119.00;;;5.60;;
4274;SDS011;2151;50.988;11.068;2023-04-24T06:40:37;117.90;;;5.23;;
4274;SDS011;2151;50.988;11.068;2023-04-24T06:43:04;117.47;;;5.60;;
4274;SDS011;2151;50.988;11.068;2023-04-24T06:45:32;118.17;;;5.57;;
4274;SDS011;2151;50.988;11.068;2023-04-24T06:47:58;119.40;;;5.47;;
4274;SDS011;2151;50.988;11.068;2023-04-24T06:50:25;117.70;;;5.30;;
4274;SDS011;2151;50.988;11.068;2023-04-24T06:52:51;118.60;;;5.27;;
4274;SDS011;2151;50.988;11.068;2023-04-24T06:55:18;118.90;;;5.10;;
4274;SDS011;2151;50.988;11.068;2023-04-24T06:57:44;118.20;;;5.37;;
4274;SDS011;2151;50.988;11.068;2023-04-24T07:00:11;117.67;;;5.17;;
4274;SDS011;2151;50.988;11.068;2023-04-24T07:02:38;119.70;;;5.30;;
4274;SDS011;2151;50.988;11.068;2023-04-24T07:05:04;120.07;;;5.87;;
4274;SDS011;2151;50.988;11.068;2023-04-24T07:07:31;120.67;;;6.00;;
4274;SDS011;2151;50.988;11.068;2023-04-24T07:09:57;120.37;;;5.60;;
4274;SDS011;2151;50.988;11.068;2023-04-24T07:12:24;119.90;;;5.53;;
4274;SDS011;2151;50.988;11.068;2023-04-24T07:14:51;119.37;;;5.63;;
4274;SDS011;2151;50.988;11.068;2023-04-24T07:17:17;118.90;;;5.60;;
4274;SDS011;2151;50.988;11.068;2023-04-24T07:19:44;118.90;;;5.63;;
4274;SDS011;2151;50.988;11.068;2023-04-24T07:22:10;119.50;;;5.80;;
4274;SDS011;2151;50.988;11.068;2023-04-24T07:24:45;118.80;;;5.90;;
4274;SDS011;2151;50.988;11.068;2023-04-24T07:27:11;120.90;;;5.70;;
4274;SDS011;2151;50.988;11.068;2023-04-24T07:29:38;122.10;;;6.10;;
4274;SDS011;2151;50.988;11.068;2023-04-24T07:32:05;118.93;;;5.90;;
4274;SDS011;2151;50.988;11.068;2023-04-24T07:34:32;119.77;;;5.43;;
4274;SDS011;2151;50.988;11.068;2023-04-24T07:36:58;120.10;;;5.33;;
4274;SDS011;2151;50.988;11.068;2023-04-24T07:39:25;118.27;;;5.53;;
4274;SDS011;2151;50.988;11.068;2023-04-24T07:41:52;118.40;;;5.40;;
4274;SDS011;2151;50.988;11.068;2023-04-24T07:44:19;120.90;;;5.47;;
4274;SDS011;2151;50.988;11.068;2023-04-24T07:46:46;119.30;;;5.60;;
4274;SDS011;2151;50.988;11.068;2023-04-24T07:49:13;119.60;;;5.50;;
4274;SDS011;2151;50.988;11.068;2023-04-24T07:51:41;118.60;;;6.00;;
4274;SDS011;2151;50.988;11.068;2023-04-24T07:54:08;117.80;;;5.50;;
4274;SDS011;2151;50.988;11.068;2023-04-24T07:56:34;118.00;;;5.67;;
4274;SDS011;2151;50.988;11.068;2023-04-24T07:59:05;119.10;;;5.90;;
4274;SDS011;2151;50.988;11.068;2023-04-24T08:01:31;119.07;;;6.00;;
4274;SDS011;2151;50.988;11.068;2023-04-24T08:03:57;118.60;;;5.67;;
4274;SDS011;2151;50.988;11.068;2023-04-24T08:06:24;119.73;;;5.83;;
4274;SDS011;2151;50.988;11.068;2023-04-24T08:08:54;117.80;;;5.40;;
4274;SDS011;2151;50.988;11.068;2023-04-24T08:11:20;117.67;;;5.43;;
4274;SDS011;2151;50.988;11.068;2023-04-24T08:13:49;116.70;;;5.00;;
4274;SDS011;2151;50.988;11.068;2023-04-24T08:16:16;116.77;;;5.03;;
4274;SDS011;2151;50.988;11.068;2023-04-24T08:18:42;118.67;;;5.30;;
4274;SDS011;2151;50.988;11.068;2023-04-24T08:21:09;117.67;;;5.37;;
4274;SDS011;2151;50.988;11.068;2023-04-24T08:23:35;117.67;;;4.90;;
4274;SDS011;2151;50.988;11.068;2023-04-24T08:26:02;118.87;;;5.20;;
4274;SDS011;2151;50.988;11.068;2023-04-24T08:28:29;116.90;;;5.20;;
4274;SDS011;2151;50.988;11.068;2023-04-24T08:30:55;117.17;;;5.40;;
4274;SDS011;2151;50.988;11.068;2023-04-24T08:33:22;118.50;;;5.70;;
4274;SDS011;2151;50.988;11.068;2023-04-24T08:35:49;118.77;;;4.93;;
4274;SDS011;2151;50.988;11.068;2023-04-24T08:38:16;120.20;;;5.40;;
4274;SDS011;2151;50.988;11.068;2023-04-24T08:40:42;117.77;;;5.27;;
4274;SDS011;2151;50.988;11.068;2023-04-24T08:43:09;117.80;;;5.10;;
4274;SDS011;2151;50.988;11.068;2023-04-24T08:45:36;117.60;;;5.33;;
4274;SDS011;2151;50.988;11.068;2023-04-24T08:48:03;118.27;;;5.80;;
4274;SDS011;2151;50.988;11.068;2023-04-24T08:50:34;119.00;;;5.70;;
4274;SDS011;2151;50.988;11.068;2023-04-24T08:53:01;120.00;;;5.30;;
4274;SDS011;2151;50.988;11.068;2023-04-24T08:55:30;118.40;;;6.10;;
4274;SDS011;2151;50.988;11.068;2023-04-24T08:57:56;117.83;;;6.03;;
4274;SDS011;2151;50.988;11.068;2023-04-24T09:00:23;118.20;;;5.33;;
4274;SDS011;2151;50.988;11.068;2023-04-24T09:02:50;119.37;;;6.03;;
4274;SDS011;2151;50.988;11.068;2023-04-24T09:05:17;126.40;;;5.40;;
4274;SDS011;2151;50.988;11.068;2023-04-24T09:07:45;116.77;;;5.30;;
4274;SDS011;2151;50.988;11.068;2023-04-24T09:10:15;118.97;;;5.80;;
4274;SDS011;2151;50.988;11.068;2023-04-24T09:12:42;118.97;;;7.07;;
4274;SDS011;2151;50.988;11.068;2023-04-24T09:15:10;118.00;;;6.20;;
4274;SDS011;2151;50.988;11.068;2023-04-24T09:17:36;118.87;;;6.10;;
4274;SDS011;2151;50.988;11.068;2023-04-24T09:20:04;117.27;;;5.77;;
4274;SDS011;2151;50.988;11.068;2023-04-24T09:22:30;118.47;;;6.80;;
4274;SDS011;2151;50.988;11.068;2023-04-24T09:25:03;118.10;;;6.17;;
4274;SDS011;2151;50.988;11.068;2023-04-24T09:27:31;121.33;;;8.17;;
4274;SDS011;2151;50.988;11.068;2023-04-24T09:29:58;119.37;;;7.70;;
4274;SDS011;2151;50.988;11.068;2023-04-24T09:32:25;116.50;;;6.07;;
4274;SDS011;2151;50.988;11.068;2023-04-24T09:35:05;117.43;;;5.60;;
4274;SDS011;2151;50.988;11.068;2023-04-24T09:37:35;116.17;;;5.33;;
4274;SDS011;2151;50.988;11.068;2023-04-24T09:40:35;116.57;;;5.80;;
4274;SDS011;2151;50.988;11.068;2023-04-24T09:42:55;115.60;;;5.30;;
4274;SDS011;2151;50.988;11.068;2023-04-24T09:45:27;114.97;;;5.43;;
4274;SDS011;2151;50.988;11.068;2023-04-24T09:47:54;115.27;;;5.40;;
4274;SDS011;2151;50.988;11.068;2023-04-24T09:50:21;117.00;;;6.03;;
4274;SDS011;2151;50.988;11.068;2023-04-24T09:52:58;115.77;;;6.40;;
4274;SDS011;2151;50.988;11.068;2023-04-24T09:55:24;116.07;;;7.90;;
4274;SDS011;2151;50.988;11.068;2023-04-24T09:57:53;118.40;;;9.83;;
4274;SDS011;2151;50.988;11.068;2023-04-24T10:00:30;118.77;;;9.90;;
4274;SDS011;2151;50.988;11.068;2023-04-24T10:02:57;116.90;;;9.00;;
4274;SDS011;2151;50.988;11.068;2023-04-24T10:05:31;117.30;;;9.10;;
4274;SDS011;2151;50.988;11.068;2023-04-24T10:10:29;116.27;;;7.10;;
4274;SDS011;2151;50.988;11.068;2023-04-24T10:12:56;118.90;;;8.23;;
4274;SDS011;2151;50.988;11.068;2023-04-24T10:15:22;119.40;;;8.87;;
4274;SDS011;2151;50.988;11.068;2023-04-24T10:17:49;118.43;;;10.10;;
4274;SDS011;2151;50.988;11.068;2023-04-24T10:20:22;120.23;;;12.60;;
4274;SDS011;2151;50.988;11.068;2023-04-24T10:22:49;121.20;;;11.97;;
4274;SDS011;2151;50.988;11.068;2023-04-24T10:25:19;121.93;;;11.50;;
4274;SDS011;2151;50.988;11.068;2023-04-24T10:27:47;123.07;;;12.70;;
4274;SDS011;2151;50.988;11.068;2023-04-24T10:30:14;121.70;;;11.30;;
4274;SDS011;2151;50.988;11.068;2023-04-24T10:32:41;123.20;;;11.17;;
4274;SDS011;2151;50.988;11.068;2023-04-24T10:35:07;122.60;;;11.27;;
4274;SDS011;2151;50.988;11.068;2023-04-24T10:37:39;123.40;;;11.83;;
4274;SDS011;2151;50.988;11.068;2023-04-24T10:40:07;122.07;;;10.33;;
4274;SDS011;2151;50.988;11.068;2023-04-24T10:42:34;122.57;;;11.27;;
4274;SDS011;2151;50.988;11.068;2023-04-24T10:45:05;124.43;;;10.33;;
4274;SDS011;2151;50.988;11.068;2023-04-24T10:47:41;122.57;;;11.03;;
4274;SDS011;2151;50.988;11.068;2023-04-24T10:50:11;123.17;;;11.10;;
4274;SDS011;2151;50.988;11.068;2023-04-24T10:52:47;123.00;;;11.30;;
4274;SDS011;2151;50.988;11.068;2023-04-24T10:55:14;122.27;;;10.90;;
4274;SDS011;2151;50.988;11.068;2023-04-24T10:58:02;122.37;;;11.40;;
4274;SDS011;2151;50.988;11.068;2023-04-24T11:00:29;121.50;;;12.07;;
4274;SDS011;2151;50.988;11.068;2023-04-24T11:02:56;121.70;;;12.10;;
4274;SDS011;2151;50.988;11.068;2023-04-24T11:05:49;121.20;;;11.20;;
4274;SDS011;2151;50.988;11.068;2023-04-24T11:08:10;121.97;;;11.23;;
4274;SDS011;2151;50.988;11.068;2023-04-24T11:10:43;122.80;;;11.40;;
4274;SDS011;2151;50.988;11.068;2023-04-24T11:13:09;122.47;;;10.47;;
4274;SDS011;2151;50.988;11.068;2023-04-24T11:15:37;120.53;;;7.77;;
4274;SDS011;2151;50.988;11.068;2023-04-24T11:18:07;119.97;;;7.40;;
4274;SDS011;2151;50.988;11.068;2023-04-24T11:20:33;121.27;;;8.40;;
4274;SDS011;2151;50.988;11.068;2023-04-24T11:23:03;121.63;;;9.83;;
4274;SDS011;2151;50.988;11.068;2023-04-24T11:25:30;129.23;;;11.40;;
4274;SDS011;2151;50.988;11.068;2023-04-24T11:28:03;122.17;;;10.90;;
4274;SDS011;2151;50.988;11.068;2023-04-24T11:30:30;121.80;;;11.03;;
4274;SDS011;2151;50.988;11.068;2023-04-24T11:33:02;123.03;;;10.80;;
4274;SDS011;2151;50.988;11.068;2023-04-24T11:35:29;120.93;;;11.73;;
4274;SDS011;2151;50.988;11.068;2023-04-24T11:37:56;124.17;;;12.40;;
4274;SDS011;2151;50.988;11.068;2023-04-24T11:40:25;120.10;;;13.10;;
4274;SDS011;2151;50.988;11.068;2023-04-24T11:42:53;121.13;;;13.30;;
4274;SDS011;2151;50.988;11.068;2023-04-24T11:45:22;121.23;;;12.90;;
4274;SDS011;2151;50.988;11.068;2023-04-24T11:47:50;119.87;;;13.40;;
4274;SDS011;2151;50.988;11.068;2023-04-24T11:50:17;120.60;;;13.40;;
4274;SDS011;2151;50.988;11.068;2023-04-24T11:52:45;121.17;;;12.13;;
4274;SDS011;2151;50.988;11.068;2023-04-24T11:57:38;122.23;;;12.10;;
4274;SDS011;2151;50.988;11.068;2023-04-24T12:00:05;122.30;;;11.87;;
4274;SDS011;2151;50.988;11.068;2023-04-24T12:02:32;122.57;;;11.70;;
4274;SDS011;2151;50.988;11.068;2023-04-24T12:04:59;123.67;;;10.87;;
4274;SDS011;2151;50.988;11.068;2023-04-24T12:07:25;126.87;;;11.33;;
4274;SDS011;2151;50.988;11.068;2023-04-24T12:09:56;122.77;;;11.37;;
4274;SDS011;2151;50.988;11.068;2023-04-24T12:12:24;122.27;;;10.93;;
4274;SDS011;2151;50.988;11.068;2023-04-24T12:14:55;121.80;;;10.40;;
4274;SDS011;2151;50.988;11.068;2023-04-24T12:19:57;122.37;;;10.63;;
4274;SDS011;2151;50.988;11.068;2023-04-24T12:22:23;121.80;;;10.40;;
4274;SDS011;2151;50.988;11.068;2023-04-24T12:25:24;121.80;;;10.43;;
4274;SDS011;2151;50.988;11.068;2023-04-24T12:27:44;122.47;;;11.30;;
4274;SDS011;2151;50.988;11.068;2023-04-24T12:30:12;122.47;;;11.13;;
4274;SDS011;2151;50.988;11.068;2023-04-24T12:32:48;122.90;;;11.00;;
4274;SDS011;2151;50.988;11.068;2023-04-24T12:35:21;122.60;;;11.00;;
4274;SDS011;2151;50.988;11.068;2023-04-24T12:37:48;121.47;;;12.10;;
4274;SDS011;2151;50.988;11.068;2023-04-24T12:40:16;120.97;;;12.23;;
4274;SDS011;2151;50.988;11.068;2023-04-24T12:42:47;119.37;;;12.17;;
4274;SDS011;2151;50.988;11.068;2023-04-24T12:45:17;120.80;;;11.87;;
4274;SDS011;2151;50.988;11.068;2023-04-24T12:47:44;116.90;;;8.50;;
4274;SDS011;2151;50.988;11.068;2023-04-24T12:50:14;116.07;;;6.53;;
4274;SDS011;2151;50.988;11.068;2023-04-24T12:52:41;116.13;;;6.80;;
4274;SDS011;2151;50.988;11.068;2023-04-24T12:55:08;114.90;;;5.17;;
4274;SDS011;2151;50.988;11.068;2023-04-24T12:57:36;114.90;;;5.13;;
4274;SDS011;2151;50.988;11.068;2023-04-24T13:00:03;114.60;;;5.17;;
4274;SDS011;2151;50.988;11.068;2023-04-24T13:02:30;114.43;;;5.30;;
4274;SDS011;2151;50.988;11.068;2023-04-24T13:05:00;118.13;;;5.60;;
4274;SDS011;2151;50.988;11.068;2023-04-24T13:07:27;116.20;;;5.33;;
4274;SDS011;2151;50.988;11.068;2023-04-24T13:09:54;114.80;;;5.90;;
4274;SDS011;2151;50.988;11.068;2023-04-24T13:12:21;119.73;;;7.10;;
4274;SDS011;2151;50.988;11.068;2023-04-24T13:14:47;115.57;;;6.67;;
4274;SDS011;2151;50.988;11.068;2023-04-24T13:17:14;116.70;;;7.10;;
4274;SDS011;2151;50.988;11.068;2023-04-24T13:19:41;115.60;;;6.60;;
4274;SDS011;2151;50.988;11.068;2023-04-24T13:22:12;115.83;;;6.80;;
4274;SDS011;2151;50.988;11.068;2023-04-24T13:24:39;116.17;;;7.30;;
4274;SDS011;2151;50.988;11.068;2023-04-24T13:27:08;116.07;;;6.47;;
4274;SDS011;2151;50.988;11.068;2023-04-24T13:29:36;115.50;;;6.47;;
4274;SDS011;2151;50.988;11.068;2023-04-24T13:32:03;117.07;;;5.87;;
4274;SDS011;2151;50.988;11.068;2023-04-24T13:34:29;115.30;;;5.57;;
4274;SDS011;2151;50.988;11.068;2023-04-24T13:36:56;114.97;;;5.43;;
4274;SDS011;2151;50.988;11.068;2023-04-24T13:39:23;115.67;;;5.43;;
4274;SDS011;2151;50.988;11.068;2023-04-24T13:41:50;115.33;;;5.13;;
4274;SDS011;2151;50.988;11.068;2023-04-24T13:44:17;115.70;;;5.50;;
4274;SDS011;2151;50.988;11.068;2023-04-24T13:46:44;115.23;;;5.10;;
4274;SDS011;2151;50.988;11.068;2023-04-24T13:49:12;114.77;;;5.20;;
4274;SDS011;2151;50.988;11.068;2023-04-24T13:51:39;114.70;;;5.17;;
4274;SDS011;2151;50.988;11.068;2023-04-24T13:54:06;117.20;;;5.30;;
4274;SDS011;2151;50.988;11.068;2023-04-24T13:56:32;114.90;;;5.00;;
4274;SDS011;2151;50.988;11.068;2023-04-24T13:58:59;115.97;;;5.00;;
4274;SDS011;2151;50.988;11.068;2023-04-24T14:01:25;116.57;;;5.30;;
4274;SDS011;2151;50.988;11.068;2023-04-24T14:03:53;115.40;;;5.10;;
4274;SDS011;2151;50.988;11.068;2023-04-24T14:06:19;115.63;;;5.03;;
4274;SDS011;2151;50.988;11.068;2023-04-24T14:08:46;115.03;;;4.97;;
4274;SDS011;2151;50.988;11.068;2023-04-24T14:11:13;117.07;;;5.37;;
4274;SDS011;2151;50.988;11.068;2023-04-24T14:13:40;115.80;;;5.03;;
4274;SDS011;2151;50.988;11.068;2023-04-24T14:16:07;115.37;;;5.07;;
4274;SDS011;2151;50.988;11.068;2023-04-24T14:18:34;115.30;;;5.10;;
4274;SDS011;2151;50.988;11.068;2023-04-24T14:21:02;115.93;;;5.17;;
4274;SDS011;2151;50.988;11.068;2023-04-24T14:23:29;115.40;;;4.97;;
4274;SDS011;2151;50.988;11.068;2023-04-24T14:25:56;115.27;;;5.30;;
4274;SDS011;2151;50.988;11.068;2023-04-24T14:28:23;115.70;;;4.90;;
4274;SDS011;2151;50.988;11.068;2023-04-24T14:30:49;115.67;;;4.90;;
4274;SDS011;2151;50.988;11.068;2023-04-24T14:33:16;115.87;;;5.13;;
4274;SDS011;2151;50.988;11.068;2023-04-24T14:35:43;115.40;;;4.73;;
4274;SDS011;2151;50.988;11.068;2023-04-24T14:38:09;115.83;;;5.10;;
4274;SDS011;2151;50.988;11.068;2023-04-24T14:40:37;116.20;;;5.10;;
4274;SDS011;2151;50.988;11.068;2023-04-24T14:43:23;130.83;;;5.10;;